sensor_id;sensor_type;location;lat;lon;timestamp;P1;durP1;ratioP1;P2;durP2;ratioP2
71288;SDS011;59068;52.502;9.860;2024-03-23T00:51:56;14.10;;;7.07;;
71288;SDS011;59068;52.502;9.860;2024-03-23T00:54:22;15.83;;;6.97;;
71288;SDS011;59068;52.502;9.860;2024-03-23T00:56:48;11.90;;;5.63;;
71288;SDS011;59068;52.502;9.860;2024-03-23T00:59:14;13.80;;;6.93;;
71288;SDS011;59068;52.502;9.860;2024-03-23T01:01:40;12.77;;;7.40;;
71288;SDS011;59068;52.502;9.860;2024-03-23T01:04:06;11.93;;;7.17;;
71288;SDS011;59068;52.502;9.860;2024-03-23T01:06:31;13.00;;;7.57;;
71288;SDS011;59068;52.502;9.860;2024-03-23T01:08:59;12.67;;;7.40;;
71288;SDS011;59068;52.502;9.860;2024-03-23T01:11:24;13.23;;;7.73;;
71288;SDS011;59068;52.502;9.860;2024-03-23T01:13:53;13.87;;;8.07;;
71288;SDS011;59068;52.502;9.860;2024-03-23T01:16:20;18.67;;;7.13;;
71288;SDS011;59068;52.502;9.860;2024-03-23T01:18:46;14.50;;;7.17;;
71288;SDS011;59068;52.502;9.860;2024-03-23T01:21:12;14.87;;;7.13;;
71288;SDS011;59068;52.502;9.860;2024-03-23T01:23:38;10.40;;;6.07;;
71288;SDS011;59068;52.502;9.860;2024-03-23T01:26:05;9.90;;;6.00;;
71288;SDS011;59068;52.502;9.860;2024-03-23T01:28:31;13.20;;;6.77;;
71288;SDS011;59068;52.502;9.860;2024-03-23T01:30:56;14.00;;;7.30;;
71288;SDS011;59068;52.502;9.860;2024-03-23T01:33:23;11.43;;;6.17;;
71288;SDS011;59068;52.502;9.860;2024-03-23T01:35:49;13.73;;;6.60;;
71288;SDS011;59068;52.502;9.860;2024-03-23T01:38:16;12.93;;;7.80;;
71288;SDS011;59068;52.502;9.860;2024-03-23T01:40:41;13.83;;;6.70;;
71288;SDS011;59068;52.502;9.860;2024-03-23T01:43:09;14.77;;;6.90;;
71288;SDS011;59068;52.502;9.860;2024-03-23T01:45:34;11.53;;;7.13;;
71288;SDS011;59068;52.502;9.860;2024-03-23T01:48:01;9.27;;;6.40;;
71288;SDS011;59068;52.502;9.860;2024-03-23T01:50:27;10.90;;;7.23;;
71288;SDS011;59068;52.502;9.860;2024-03-23T01:52:53;13.20;;;7.60;;
71288;SDS011;59068;52.502;9.860;2024-03-23T01:55:19;12.33;;;8.67;;
71288;SDS011;59068;52.502;9.860;2024-03-23T01:57:47;11.57;;;7.60;;
71288;SDS011;59068;52.502;9.860;2024-03-23T02:00:14;15.03;;;8.23;;
71288;SDS011;59068;52.502;9.860;2024-03-23T02:02:43;15.93;;;8.97;;
71288;SDS011;59068;52.502;9.860;2024-03-23T02:05:09;13.37;;;7.70;;
71288;SDS011;59068;52.502;9.860;2024-03-23T02:07:35;14.83;;;8.10;;
71288;SDS011;59068;52.502;9.860;2024-03-23T02:10:01;15.47;;;8.00;;
71288;SDS011;59068;52.502;9.860;2024-03-23T02:12:28;13.47;;;7.73;;
71288;SDS011;59068;52.502;9.860;2024-03-23T02:14:53;12.67;;;7.67;;
71288;SDS011;59068;52.502;9.860;2024-03-23T02:17:21;13.47;;;7.83;;
71288;SDS011;59068;52.502;9.860;2024-03-23T02:19:47;13.13;;;6.93;;
71288;SDS011;59068;52.502;9.860;2024-03-23T02:22:13;13.37;;;8.10;;
71288;SDS011;59068;52.502;9.860;2024-03-23T02:24:41;11.67;;;7.67;;
71288;SDS011;59068;52.502;9.860;2024-03-23T02:27:08;9.80;;;7.27;;
71288;SDS011;59068;52.502;9.860;2024-03-23T02:29:33;11.50;;;7.70;;
71288;SDS011;59068;52.502;9.860;2024-03-23T02:32:00;14.07;;;7.97;;
71288;SDS011;59068;52.502;9.860;2024-03-23T02:34:26;13.10;;;7.57;;
71288;SDS011;59068;52.502;9.860;2024-03-23T02:36:52;10.10;;;6.50;;
71288;SDS011;59068;52.502;9.860;2024-03-23T02:39:18;10.03;;;6.60;;
71288;SDS011;59068;52.502;9.860;2024-03-23T02:41:46;12.90;;;7.17;;
71288;SDS011;59068;52.502;9.860;2024-03-23T02:44:12;11.23;;;6.37;;
71288;SDS011;59068;52.502;9.860;2024-03-23T02:46:39;10.53;;;6.50;;
71288;SDS011;59068;52.502;9.860;2024-03-23T02:49:04;12.13;;;6.43;;
71288;SDS011;59068;52.502;9.860;2024-03-23T02:51:30;12.00;;;6.87;;
71288;SDS011;59068;52.502;9.860;2024-03-23T02:53:56;11.43;;;6.40;;
71288;SDS011;59068;52.502;9.860;2024-03-23T02:56:22;11.03;;;6.57;;
71288;SDS011;59068;52.502;9.860;2024-03-23T02:58:49;11.33;;;6.37;;
71288;SDS011;59068;52.502;9.860;2024-03-23T03:01:16;12.03;;;6.60;;
71288;SDS011;59068;52.502;9.860;2024-03-23T03:03:41;8.97;;;6.03;;
71288;SDS011;59068;52.502;9.860;2024-03-23T03:06:09;10.90;;;5.90;;
71288;SDS011;59068;52.502;9.860;2024-03-23T03:08:34;9.80;;;6.43;;
71288;SDS011;59068;52.502;9.860;2024-03-23T03:11:01;14.30;;;7.00;;
71288;SDS011;59068;52.502;9.860;2024-03-23T03:13:26;10.13;;;5.77;;
71288;SDS011;59068;52.502;9.860;2024-03-23T03:15:54;9.00;;;5.80;;
71288;SDS011;59068;52.502;9.860;2024-03-23T03:18:19;12.57;;;6.40;;
71288;SDS011;59068;52.502;9.860;2024-03-23T03:20:46;11.03;;;6.27;;
71288;SDS011;59068;52.502;9.860;2024-03-23T03:23:11;10.83;;;5.80;;
71288;SDS011;59068;52.502;9.860;2024-03-23T03:25:38;11.60;;;6.83;;
71288;SDS011;59068;52.502;9.860;2024-03-23T03:28:03;12.17;;;5.73;;
71288;SDS011;59068;52.502;9.860;2024-03-23T03:30:30;12.47;;;6.23;;
71288;SDS011;59068;52.502;9.860;2024-03-23T03:32:57;11.63;;;5.97;;
71288;SDS011;59068;52.502;9.860;2024-03-23T03:35:23;10.90;;;5.43;;
71288;SDS011;59068;52.502;9.860;2024-03-23T03:37:49;14.63;;;5.47;;
71288;SDS011;59068;52.502;9.860;2024-03-23T03:40:16;13.23;;;5.53;;
71288;SDS011;59068;52.502;9.860;2024-03-23T03:42:41;10.73;;;5.00;;
71288;SDS011;59068;52.502;9.860;2024-03-23T03:45:08;8.50;;;4.93;;
71288;SDS011;59068;52.502;9.860;2024-03-23T03:47:33;10.17;;;4.43;;
71288;SDS011;59068;52.502;9.860;2024-03-23T03:50:01;11.73;;;4.50;;
71288;SDS011;59068;52.502;9.860;2024-03-23T03:52:26;7.87;;;4.07;;
71288;SDS011;59068;52.502;9.860;2024-03-23T03:54:55;8.60;;;3.37;;
71288;SDS011;59068;52.502;9.860;2024-03-23T03:57:20;7.67;;;3.30;;
71288;SDS011;59068;52.502;9.860;2024-03-23T03:59:47;9.37;;;3.40;;
71288;SDS011;59068;52.502;9.860;2024-03-23T04:02:12;5.03;;;2.90;;
71288;SDS011;59068;52.502;9.860;2024-03-23T04:04:39;9.77;;;2.80;;
71288;SDS011;59068;52.502;9.860;2024-03-23T04:07:05;8.67;;;2.80;;
71288;SDS011;59068;52.502;9.860;2024-03-23T04:09:32;8.83;;;3.33;;
71288;SDS011;59068;52.502;9.860;2024-03-23T04:11:57;10.00;;;2.93;;
71288;SDS011;59068;52.502;9.860;2024-03-23T04:14:23;8.90;;;3.23;;
71288;SDS011;59068;52.502;9.860;2024-03-23T04:16:49;9.10;;;2.23;;
71288;SDS011;59068;52.502;9.860;2024-03-23T04:19:16;6.97;;;2.60;;
71288;SDS011;59068;52.502;9.860;2024-03-23T04:21:41;9.73;;;2.83;;
71288;SDS011;59068;52.502;9.860;2024-03-23T04:24:09;7.90;;;2.50;;
71288;SDS011;59068;52.502;9.860;2024-03-23T04:26:40;8.20;;;3.00;;
71288;SDS011;59068;52.502;9.860;2024-03-23T04:29:06;8.20;;;2.80;;
71288;SDS011;59068;52.502;9.860;2024-03-23T04:31:32;6.90;;;2.53;;
71288;SDS011;59068;52.502;9.860;2024-03-23T04:33:59;8.80;;;2.63;;
71288;SDS011;59068;52.502;9.860;2024-03-23T04:36:25;8.10;;;2.63;;
71288;SDS011;59068;52.502;9.860;2024-03-23T04:38:51;9.57;;;3.30;;
71288;SDS011;59068;52.502;9.860;2024-03-23T04:41:19;6.53;;;3.17;;
71288;SDS011;59068;52.502;9.860;2024-03-23T04:43:45;7.63;;;3.30;;
71288;SDS011;59068;52.502;9.860;2024-03-23T04:46:12;10.27;;;3.87;;
71288;SDS011;59068;52.502;9.860;2024-03-23T04:48:39;9.43;;;2.90;;
71288;SDS011;59068;52.502;9.860;2024-03-23T04:51:05;6.63;;;3.83;;
71288;SDS011;59068;52.502;9.860;2024-03-23T04:53:32;10.93;;;4.20;;
71288;SDS011;59068;52.502;9.860;2024-03-23T04:55:58;9.13;;;3.30;;
71288;SDS011;59068;52.502;9.860;2024-03-23T04:58:26;11.63;;;3.37;;
71288;SDS011;59068;52.502;9.860;2024-03-23T05:00:55;9.77;;;2.90;;
71288;SDS011;59068;52.502;9.860;2024-03-23T05:03:21;8.47;;;2.67;;
71288;SDS011;59068;52.502;9.860;2024-03-23T05:05:47;10.17;;;3.27;;
71288;SDS011;59068;52.502;9.860;2024-03-23T05:08:13;6.57;;;2.50;;
71288;SDS011;59068;52.502;9.860;2024-03-23T05:10:39;8.17;;;3.37;;
71288;SDS011;59068;52.502;9.860;2024-03-23T05:13:07;6.30;;;3.17;;
71288;SDS011;59068;52.502;9.860;2024-03-23T05:15:34;5.60;;;2.83;;
71288;SDS011;59068;52.502;9.860;2024-03-23T05:18:01;12.13;;;3.30;;
71288;SDS011;59068;52.502;9.860;2024-03-23T05:20:26;7.13;;;3.60;;
71288;SDS011;59068;52.502;9.860;2024-03-23T05:22:54;14.57;;;4.77;;
71288;SDS011;59068;52.502;9.860;2024-03-23T05:25:20;9.93;;;3.70;;
71288;SDS011;59068;52.502;9.860;2024-03-23T05:27:46;10.33;;;3.13;;
71288;SDS011;59068;52.502;9.860;2024-03-23T05:30:11;8.17;;;3.47;;
71288;SDS011;59068;52.502;9.860;2024-03-23T05:32:39;6.00;;;3.00;;
71288;SDS011;59068;52.502;9.860;2024-03-23T05:35:07;4.20;;;1.80;;
71288;SDS011;59068;52.502;9.860;2024-03-23T05:37:33;5.83;;;3.00;;
71288;SDS011;59068;52.502;9.860;2024-03-23T05:39:59;6.80;;;2.43;;
71288;SDS011;59068;52.502;9.860;2024-03-23T05:42:25;7.33;;;2.27;;
71288;SDS011;59068;52.502;9.860;2024-03-23T05:44:51;5.40;;;2.03;;
71288;SDS011;59068;52.502;9.860;2024-03-23T05:47:17;3.00;;;1.77;;
71288;SDS011;59068;52.502;9.860;2024-03-23T05:49:45;4.30;;;1.57;;
71288;SDS011;59068;52.502;9.860;2024-03-23T05:52:12;5.43;;;1.60;;
71288;SDS011;59068;52.502;9.860;2024-03-23T05:54:37;4.57;;;1.53;;
71288;SDS011;59068;52.502;9.860;2024-03-23T05:57:04;9.70;;;1.90;;
71288;SDS011;59068;52.502;9.860;2024-03-23T05:59:29;3.40;;;1.30;;
71288;SDS011;59068;52.502;9.860;2024-03-23T06:01:56;3.80;;;1.60;;
71288;SDS011;59068;52.502;9.860;2024-03-23T06:04:21;3.73;;;1.40;;
71288;SDS011;59068;52.502;9.860;2024-03-23T06:06:50;4.90;;;1.50;;
71288;SDS011;59068;52.502;9.860;2024-03-23T06:09:17;3.57;;;1.40;;
71288;SDS011;59068;52.502;9.860;2024-03-23T06:11:44;6.90;;;1.80;;
71288;SDS011;59068;52.502;9.860;2024-03-23T06:14:09;5.73;;;1.40;;
71288;SDS011;59068;52.502;9.860;2024-03-23T06:16:36;6.67;;;1.40;;
71288;SDS011;59068;52.502;9.860;2024-03-23T06:19:01;6.67;;;1.43;;
71288;SDS011;59068;52.502;9.860;2024-03-23T06:21:31;3.27;;;1.23;;
71288;SDS011;59068;52.502;9.860;2024-03-23T06:23:58;5.37;;;1.67;;
71288;SDS011;59068;52.502;9.860;2024-03-23T06:26:25;7.03;;;1.63;;
71288;SDS011;59068;52.502;9.860;2024-03-23T06:28:50;5.93;;;1.97;;
71288;SDS011;59068;52.502;9.860;2024-03-23T06:31:16;6.47;;;1.67;;
71288;SDS011;59068;52.502;9.860;2024-03-23T06:33:43;4.90;;;1.87;;
71288;SDS011;59068;52.502;9.860;2024-03-23T06:36:09;8.17;;;1.80;;
71288;SDS011;59068;52.502;9.860;2024-03-23T06:38:35;2.80;;;1.33;;
71288;SDS011;59068;52.502;9.860;2024-03-23T06:41:03;4.07;;;1.47;;
71288;SDS011;59068;52.502;9.860;2024-03-23T06:43:29;4.10;;;2.10;;
71288;SDS011;59068;52.502;9.860;2024-03-23T06:45:55;6.10;;;2.27;;
71288;SDS011;59068;52.502;9.860;2024-03-23T06:48:21;7.07;;;2.07;;
71288;SDS011;59068;52.502;9.860;2024-03-23T06:50:47;5.93;;;2.00;;
71288;SDS011;59068;52.502;9.860;2024-03-23T06:53:13;6.03;;;1.80;;
71288;SDS011;59068;52.502;9.860;2024-03-23T06:55:40;11.40;;;2.10;;
71288;SDS011;59068;52.502;9.860;2024-03-23T06:58:07;7.33;;;2.43;;
71288;SDS011;59068;52.502;9.860;2024-03-23T07:00:33;5.20;;;2.03;;
71288;SDS011;59068;52.502;9.860;2024-03-23T07:02:59;8.47;;;1.80;;
71288;SDS011;59068;52.502;9.860;2024-03-23T07:05:26;7.30;;;1.90;;
71288;SDS011;59068;52.502;9.860;2024-03-23T07:07:51;6.20;;;2.07;;
71288;SDS011;59068;52.502;9.860;2024-03-23T07:10:18;5.90;;;2.77;;
71288;SDS011;59068;52.502;9.860;2024-03-23T07:12:43;7.30;;;2.67;;
71288;SDS011;59068;52.502;9.860;2024-03-23T07:15:11;7.57;;;2.27;;
71288;SDS011;59068;52.502;9.860;2024-03-23T07:17:36;7.60;;;2.70;;
71288;SDS011;59068;52.502;9.860;2024-03-23T07:20:03;11.33;;;2.90;;
71288;SDS011;59068;52.502;9.860;2024-03-23T07:22:29;8.93;;;3.23;;
71288;SDS011;59068;52.502;9.860;2024-03-23T07:24:55;5.43;;;2.77;;
71288;SDS011;59068;52.502;9.860;2024-03-23T07:27:21;9.77;;;3.20;;
71288;SDS011;59068;52.502;9.860;2024-03-23T07:29:48;7.03;;;3.03;;
71288;SDS011;59068;52.502;9.860;2024-03-23T07:32:15;8.03;;;2.90;;
71288;SDS011;59068;52.502;9.860;2024-03-23T07:34:42;9.10;;;4.13;;
71288;SDS011;59068;52.502;9.860;2024-03-23T07:37:09;13.77;;;3.93;;
71288;SDS011;59068;52.502;9.860;2024-03-23T07:39:35;9.20;;;4.17;;
71288;SDS011;59068;52.502;9.860;2024-03-23T07:42:02;10.40;;;3.73;;
71288;SDS011;59068;52.502;9.860;2024-03-23T07:44:27;15.17;;;3.73;;
71288;SDS011;59068;52.502;9.860;2024-03-23T07:46:54;15.97;;;4.07;;
71288;SDS011;59068;52.502;9.860;2024-03-23T07:49:21;13.83;;;4.57;;
71288;SDS011;59068;52.502;9.860;2024-03-23T07:51:47;10.83;;;3.77;;
71288;SDS011;59068;52.502;9.860;2024-03-23T07:54:13;10.87;;;3.63;;
71288;SDS011;59068;52.502;9.860;2024-03-23T07:56:39;14.00;;;4.60;;
71288;SDS011;59068;52.502;9.860;2024-03-23T07:59:05;17.10;;;4.60;;
71288;SDS011;59068;52.502;9.860;2024-03-23T08:01:30;10.97;;;4.73;;
71288;SDS011;59068;52.502;9.860;2024-03-23T08:03:57;16.00;;;4.97;;
71288;SDS011;59068;52.502;9.860;2024-03-23T08:06:24;14.43;;;5.27;;
71288;SDS011;59068;52.502;9.860;2024-03-23T08:08:51;12.53;;;4.93;;
71288;SDS011;59068;52.502;9.860;2024-03-23T08:11:24;13.57;;;4.87;;
71288;SDS011;59068;52.502;9.860;2024-03-23T08:13:50;8.47;;;4.37;;
71288;SDS011;59068;52.502;9.860;2024-03-23T08:16:16;13.30;;;5.53;;
71288;SDS011;59068;52.502;9.860;2024-03-23T08:18:42;15.43;;;4.87;;
71288;SDS011;59068;52.502;9.860;2024-03-23T08:21:08;16.47;;;4.93;;
71288;SDS011;59068;52.502;9.860;2024-03-23T08:23:36;14.27;;;5.63;;
71288;SDS011;59068;52.502;9.860;2024-03-23T08:26:03;18.27;;;6.13;;
71288;SDS011;59068;52.502;9.860;2024-03-23T08:28:29;15.43;;;4.90;;
71288;SDS011;59068;52.502;9.860;2024-03-23T08:30:55;15.30;;;5.87;;
71288;SDS011;59068;52.502;9.860;2024-03-23T08:33:22;12.83;;;6.33;;
71288;SDS011;59068;52.502;9.860;2024-03-23T08:35:54;12.13;;;5.83;;
71288;SDS011;59068;52.502;9.860;2024-03-23T08:38:21;19.00;;;6.87;;
71288;SDS011;59068;52.502;9.860;2024-03-23T08:40:48;9.97;;;5.10;;
71288;SDS011;59068;52.502;9.860;2024-03-23T08:43:22;14.67;;;6.60;;
71288;SDS011;59068;52.502;9.860;2024-03-23T08:45:47;17.10;;;5.47;;
71288;SDS011;59068;52.502;9.860;2024-03-23T08:48:14;13.10;;;6.43;;
71288;SDS011;59068;52.502;9.860;2024-03-23T08:50:39;12.20;;;5.87;;
71288;SDS011;59068;52.502;9.860;2024-03-23T08:53:06;11.80;;;4.47;;
71288;SDS011;59068;52.502;9.860;2024-03-23T08:55:31;12.70;;;6.10;;
71288;SDS011;59068;52.502;9.860;2024-03-23T08:57:59;12.67;;;6.20;;
71288;SDS011;59068;52.502;9.860;2024-03-23T09:00:25;11.30;;;5.60;;
71288;SDS011;59068;52.502;9.860;2024-03-23T09:02:51;11.93;;;4.47;;
71288;SDS011;59068;52.502;9.860;2024-03-23T09:05:18;9.27;;;4.13;;
71288;SDS011;59068;52.502;9.860;2024-03-23T09:07:44;9.20;;;5.20;;
71288;SDS011;59068;52.502;9.860;2024-03-23T09:10:10;9.00;;;4.97;;
71288;SDS011;59068;52.502;9.860;2024-03-23T09:12:36;10.77;;;3.60;;
71288;SDS011;59068;52.502;9.860;2024-03-23T09:15:03;11.50;;;3.63;;
71288;SDS011;59068;52.502;9.860;2024-03-23T09:17:29;10.60;;;4.47;;
71288;SDS011;59068;52.502;9.860;2024-03-23T09:19:55;10.27;;;4.20;;
71288;SDS011;59068;52.502;9.860;2024-03-23T09:22:21;7.67;;;3.67;;
71288;SDS011;59068;52.502;9.860;2024-03-23T09:24:47;8.10;;;4.27;;
71288;SDS011;59068;52.502;9.860;2024-03-23T09:27:13;10.80;;;4.80;;
71288;SDS011;59068;52.502;9.860;2024-03-23T09:29:38;11.10;;;4.37;;
71288;SDS011;59068;52.502;9.860;2024-03-23T09:32:06;8.50;;;4.30;;
71288;SDS011;59068;52.502;9.860;2024-03-23T09:34:32;10.60;;;4.47;;
71288;SDS011;59068;52.502;9.860;2024-03-23T09:37:00;14.77;;;4.93;;
71288;SDS011;59068;52.502;9.860;2024-03-23T09:39:25;5.97;;;2.80;;
71288;SDS011;59068;52.502;9.860;2024-03-23T09:41:56;8.43;;;4.13;;
71288;SDS011;59068;52.502;9.860;2024-03-23T09:44:21;10.07;;;3.70;;
71288;SDS011;59068;52.502;9.860;2024-03-23T09:46:47;9.23;;;4.17;;
71288;SDS011;59068;52.502;9.860;2024-03-23T09:49:14;9.33;;;4.53;;
71288;SDS011;59068;52.502;9.860;2024-03-23T09:51:42;4.03;;;3.00;;
71288;SDS011;59068;52.502;9.860;2024-03-23T09:54:07;8.53;;;3.10;;
71288;SDS011;59068;52.502;9.860;2024-03-23T09:56:34;6.03;;;3.20;;
71288;SDS011;59068;52.502;9.860;2024-03-23T09:59:00;7.00;;;3.03;;
71288;SDS011;59068;52.502;9.860;2024-03-23T10:01:26;7.60;;;2.57;;
71288;SDS011;59068;52.502;9.860;2024-03-23T10:03:52;6.37;;;2.10;;
71288;SDS011;59068;52.502;9.860;2024-03-23T10:06:22;5.73;;;2.57;;
71288;SDS011;59068;52.502;9.860;2024-03-23T10:08:49;7.40;;;2.20;;
71288;SDS011;59068;52.502;9.860;2024-03-23T10:11:16;9.23;;;2.47;;
71288;SDS011;59068;52.502;9.860;2024-03-23T10:13:42;4.03;;;1.80;;
71288;SDS011;59068;52.502;9.860;2024-03-23T10:16:09;8.10;;;1.80;;
71288;SDS011;59068;52.502;9.860;2024-03-23T10:18:36;3.43;;;1.83;;
71288;SDS011;59068;52.502;9.860;2024-03-23T10:21:06;5.57;;;1.80;;
71288;SDS011;59068;52.502;9.860;2024-03-23T10:23:33;5.13;;;1.57;;
71288;SDS011;59068;52.502;9.860;2024-03-23T10:26:10;4.10;;;1.87;;
71288;SDS011;59068;52.502;9.860;2024-03-23T10:28:37;5.90;;;1.80;;
71288;SDS011;59068;52.502;9.860;2024-03-23T10:31:16;5.07;;;1.60;;
71288;SDS011;59068;52.502;9.860;2024-03-23T10:33:44;4.30;;;1.47;;
71288;SDS011;59068;52.502;9.860;2024-03-23T10:36:10;7.57;;;1.70;;
71288;SDS011;59068;52.502;9.860;2024-03-23T10:38:37;5.83;;;1.47;;
71288;SDS011;59068;52.502;9.860;2024-03-23T10:41:04;4.60;;;1.83;;
71288;SDS011;59068;52.502;9.860;2024-03-23T10:43:29;5.60;;;1.70;;
71288;SDS011;59068;52.502;9.860;2024-03-23T10:45:56;6.40;;;1.27;;
71288;SDS011;59068;52.502;9.860;2024-03-23T10:48:23;3.27;;;1.30;;
71288;SDS011;59068;52.502;9.860;2024-03-23T10:50:49;3.00;;;1.20;;
71288;SDS011;59068;52.502;9.860;2024-03-23T10:53:15;2.87;;;1.30;;
71288;SDS011;59068;52.502;9.860;2024-03-23T10:55:44;2.47;;;1.13;;
71288;SDS011;59068;52.502;9.860;2024-03-23T10:58:09;1.73;;;0.83;;
71288;SDS011;59068;52.502;9.860;2024-03-23T11:00:37;3.30;;;0.90;;
71288;SDS011;59068;52.502;9.860;2024-03-23T11:03:16;2.83;;;0.60;;
71288;SDS011;59068;52.502;9.860;2024-03-23T11:05:55;2.43;;;0.67;;
71288;SDS011;59068;52.502;9.860;2024-03-23T11:08:29;0.60;;;0.57;;
71288;SDS011;59068;52.502;9.860;2024-03-23T11:13:51;4.43;;;0.93;;
71288;SDS011;59068;52.502;9.860;2024-03-23T11:16:21;0.73;;;0.60;;
71288;SDS011;59068;52.502;9.860;2024-03-23T11:18:47;3.30;;;1.00;;
71288;SDS011;59068;52.502;9.860;2024-03-23T11:23:54;1.00;;;1.00;;
71288;SDS011;59068;52.502;9.860;2024-03-23T11:26:20;3.17;;;0.80;;
71288;SDS011;59068;52.502;9.860;2024-03-23T11:28:45;2.27;;;0.90;;
71288;SDS011;59068;52.502;9.860;2024-03-23T11:31:13;2.10;;;0.97;;
71288;SDS011;59068;52.502;9.860;2024-03-23T11:33:39;3.17;;;0.97;;
71288;SDS011;59068;52.502;9.860;2024-03-23T11:36:06;1.33;;;0.60;;
71288;SDS011;59068;52.502;9.860;2024-03-23T11:38:32;2.57;;;0.57;;
71288;SDS011;59068;52.502;9.860;2024-03-23T11:41:02;2.20;;;1.00;;
71288;SDS011;59068;52.502;9.860;2024-03-23T11:43:28;1.53;;;1.00;;
71288;SDS011;59068;52.502;9.860;2024-03-23T11:45:54;2.57;;;1.20;;
71288;SDS011;59068;52.502;9.860;2024-03-23T11:48:22;1.83;;;1.00;;
71288;SDS011;59068;52.502;9.860;2024-03-23T11:50:50;3.27;;;1.10;;
71288;SDS011;59068;52.502;9.860;2024-03-23T11:53:16;1.43;;;0.63;;
71288;SDS011;59068;52.502;9.860;2024-03-23T11:55:45;2.17;;;1.00;;
71288;SDS011;59068;52.502;9.860;2024-03-23T11:58:10;2.20;;;1.17;;
71288;SDS011;59068;52.502;9.860;2024-03-23T12:00:37;0.97;;;0.50;;
71288;SDS011;59068;52.502;9.860;2024-03-23T12:03:02;1.50;;;0.60;;
71288;SDS011;59068;52.502;9.860;2024-03-23T12:05:31;1.10;;;0.67;;
71288;SDS011;59068;52.502;9.860;2024-03-23T12:10:37;1.00;;;0.50;;
71288;SDS011;59068;52.502;9.860;2024-03-23T12:13:03;1.60;;;0.60;;
71288;SDS011;59068;52.502;9.860;2024-03-23T12:15:29;1.53;;;0.70;;
71288;SDS011;59068;52.502;9.860;2024-03-23T12:18:05;1.80;;;0.67;;
71288;SDS011;59068;52.502;9.860;2024-03-23T12:20:33;3.20;;;0.50;;
71288;SDS011;59068;52.502;9.860;2024-03-23T12:23:10;1.13;;;0.30;;
71288;SDS011;59068;52.502;9.860;2024-03-23T12:25:37;1.10;;;0.30;;
71288;SDS011;59068;52.502;9.860;2024-03-23T12:28:03;5.17;;;0.60;;
71288;SDS011;59068;52.502;9.860;2024-03-23T12:30:31;1.20;;;0.40;;
71288;SDS011;59068;52.502;9.860;2024-03-23T12:32:57;2.80;;;0.70;;
71288;SDS011;59068;52.502;9.860;2024-03-23T12:35:23;1.83;;;0.83;;
71288;SDS011;59068;52.502;9.860;2024-03-23T12:37:50;2.27;;;0.43;;
71288;SDS011;59068;52.502;9.860;2024-03-23T12:40:16;0.50;;;0.50;;
71288;SDS011;59068;52.502;9.860;2024-03-23T12:42:42;1.00;;;0.63;;
71288;SDS011;59068;52.502;9.860;2024-03-23T12:45:08;1.63;;;1.03;;
71288;SDS011;59068;52.502;9.860;2024-03-23T12:47:34;1.60;;;0.67;;
71288;SDS011;59068;52.502;9.860;2024-03-23T12:50:01;1.53;;;0.90;;
71288;SDS011;59068;52.502;9.860;2024-03-23T12:52:26;1.63;;;1.10;;
71288;SDS011;59068;52.502;9.860;2024-03-23T12:54:55;1.30;;;0.90;;
71288;SDS011;59068;52.502;9.860;2024-03-23T12:57:21;1.43;;;0.57;;
71288;SDS011;59068;52.502;9.860;2024-03-23T12:59:48;1.30;;;0.90;;
71288;SDS011;59068;52.502;9.860;2024-03-23T13:02:16;3.13;;;1.00;;
71288;SDS011;59068;52.502;9.860;2024-03-23T13:04:42;2.53;;;1.40;;
71288;SDS011;59068;52.502;9.860;2024-03-23T13:07:07;2.10;;;1.00;;
71288;SDS011;59068;52.502;9.860;2024-03-23T13:09:34;2.00;;;0.57;;
71288;SDS011;59068;52.502;9.860;2024-03-23T13:12:01;2.10;;;0.90;;
71288;SDS011;59068;52.502;9.860;2024-03-23T13:14:27;2.00;;;1.03;;
71288;SDS011;59068;52.502;9.860;2024-03-23T13:16:53;1.90;;;0.80;;
71288;SDS011;59068;52.502;9.860;2024-03-23T13:19:19;2.10;;;0.90;;
71288;SDS011;59068;52.502;9.860;2024-03-23T13:21:50;1.10;;;0.70;;
71288;SDS011;59068;52.502;9.860;2024-03-23T13:24:15;1.73;;;0.90;;
71288;SDS011;59068;52.502;9.860;2024-03-23T13:26:42;0.77;;;0.57;;
71288;SDS011;59068;52.502;9.860;2024-03-23T13:29:09;1.47;;;0.87;;
71288;SDS011;59068;52.502;9.860;2024-03-23T13:31:35;1.43;;;0.90;;
71288;SDS011;59068;52.502;9.860;2024-03-23T13:34:01;2.30;;;0.87;;
71288;SDS011;59068;52.502;9.860;2024-03-23T13:36:27;0.87;;;0.63;;
71288;SDS011;59068;52.502;9.860;2024-03-23T13:38:53;1.90;;;0.60;;
71288;SDS011;59068;52.502;9.860;2024-03-23T13:41:20;1.53;;;0.70;;
71288;SDS011;59068;52.502;9.860;2024-03-23T13:43:45;0.50;;;0.50;;
71288;SDS011;59068;52.502;9.860;2024-03-23T13:46:13;1.70;;;0.70;;
71288;SDS011;59068;52.502;9.860;2024-03-23T13:48:39;2.83;;;1.00;;
71288;SDS011;59068;52.502;9.860;2024-03-23T13:51:07;3.63;;;0.57;;
71288;SDS011;59068;52.502;9.860;2024-03-23T13:53:32;1.30;;;0.80;;
71288;SDS011;59068;52.502;9.860;2024-03-23T13:55:59;1.50;;;0.57;;
71288;SDS011;59068;52.502;9.860;2024-03-23T13:58:24;1.17;;;0.80;;
71288;SDS011;59068;52.502;9.860;2024-03-23T14:00:51;2.27;;;0.80;;
71288;SDS011;59068;52.502;9.860;2024-03-23T14:03:18;1.10;;;0.70;;
71288;SDS011;59068;52.502;9.860;2024-03-23T14:05:44;1.13;;;0.63;;
71288;SDS011;59068;52.502;9.860;2024-03-23T14:08:12;0.67;;;0.60;;
71288;SDS011;59068;52.502;9.860;2024-03-23T14:10:40;1.97;;;0.73;;
71288;SDS011;59068;52.502;9.860;2024-03-23T14:13:05;0.67;;;0.60;;
71288;SDS011;59068;52.502;9.860;2024-03-23T14:15:32;1.43;;;0.67;;
71288;SDS011;59068;52.502;9.860;2024-03-23T14:17:57;1.73;;;0.70;;
71288;SDS011;59068;52.502;9.860;2024-03-23T14:20:25;3.93;;;0.97;;
71288;SDS011;59068;52.502;9.860;2024-03-23T14:22:51;1.80;;;0.70;;
71288;SDS011;59068;52.502;9.860;2024-03-23T14:25:17;2.83;;;0.90;;
71288;SDS011;59068;52.502;9.860;2024-03-23T14:27:43;2.90;;;1.07;;
71288;SDS011;59068;52.502;9.860;2024-03-23T14:30:10;1.10;;;1.00;;
71288;SDS011;59068;52.502;9.860;2024-03-23T14:32:37;2.77;;;1.20;;
71288;SDS011;59068;52.502;9.860;2024-03-23T14:35:04;1.67;;;0.90;;
71288;SDS011;59068;52.502;9.860;2024-03-23T14:37:31;2.27;;;0.87;;
71288;SDS011;59068;52.502;9.860;2024-03-23T14:39:57;2.10;;;0.80;;
71288;SDS011;59068;52.502;9.860;2024-03-23T14:42:23;1.60;;;0.80;;
71288;SDS011;59068;52.502;9.860;2024-03-23T14:44:49;2.27;;;0.70;;
71288;SDS011;59068;52.502;9.860;2024-03-23T14:47:15;2.33;;;0.90;;
71288;SDS011;59068;52.502;9.860;2024-03-23T14:49:42;0.73;;;0.40;;
71288;SDS011;59068;52.502;9.860;2024-03-23T14:52:08;0.70;;;0.40;;
71288;SDS011;59068;52.502;9.860;2024-03-23T14:54:36;1.50;;;0.50;;
71288;SDS011;59068;52.502;9.860;2024-03-23T14:57:01;2.93;;;0.60;;
71288;SDS011;59068;52.502;9.860;2024-03-23T14:59:28;0.50;;;0.27;;
71288;SDS011;59068;52.502;9.860;2024-03-23T15:01:55;1.57;;;0.50;;
71288;SDS011;59068;52.502;9.860;2024-03-23T15:04:24;0.93;;;0.57;;
71288;SDS011;59068;52.502;9.860;2024-03-23T15:06:50;0.40;;;0.40;;
71288;SDS011;59068;52.502;9.860;2024-03-23T15:09:16;2.03;;;0.37;;
71288;SDS011;59068;52.502;9.860;2024-03-23T15:11:44;2.13;;;0.40;;
71288;SDS011;59068;52.502;9.860;2024-03-23T15:14:10;0.20;;;0.20;;
71288;SDS011;59068;52.502;9.860;2024-03-23T15:16:36;1.10;;;0.40;;
71288;SDS011;59068;52.502;9.860;2024-03-23T15:19:02;1.40;;;0.57;;
71288;SDS011;59068;52.502;9.860;2024-03-23T15:21:30;0.60;;;0.40;;
71288;SDS011;59068;52.502;9.860;2024-03-23T15:23:57;2.43;;;0.50;;
71288;SDS011;59068;52.502;9.860;2024-03-23T15:26:22;2.20;;;0.50;;
71288;SDS011;59068;52.502;9.860;2024-03-23T15:28:50;0.23;;;0.20;;
71288;SDS011;59068;52.502;9.860;2024-03-23T15:31:35;0.63;;;0.10;;
71288;SDS011;59068;52.502;9.860;2024-03-23T15:34:01;1.13;;;0.43;;
71288;SDS011;59068;52.502;9.860;2024-03-23T15:36:28;0.20;;;0.10;;
71288;SDS011;59068;52.502;9.860;2024-03-23T15:38:54;1.00;;;0.30;;